createdAt,value
2023-01-05T00:02:02.180Z,7.08
2023-01-05T00:04:31.836Z,7.11
2023-01-05T00:06:58.608Z,7.07
2023-01-05T00:09:25.544Z,7.00
2023-01-05T00:12:10.575Z,7.00
2023-01-05T00:14:58.521Z,7.01
2023-01-05T00:23:32.025Z,6.88
2023-01-05T00:25:58.893Z,6.86
2023-01-05T00:28:25.561Z,6.81
2023-01-05T00:30:55.504Z,6.79
2023-01-05T00:33:22.384Z,6.78
2023-01-05T00:35:57.388Z,6.83
2023-01-05T00:38:26.733Z,6.84
2023-01-05T00:40:55.589Z,6.83
2023-01-05T00:43:28.691Z,6.77
2023-01-05T00:45:55.391Z,6.78
2023-01-05T00:48:26.647Z,6.80
2023-01-05T00:50:53.466Z,6.76
2023-01-05T00:53:24.073Z,6.78
2023-01-05T00:56:00.192Z,6.85
2023-01-05T00:58:35.750Z,6.96
2023-01-05T01:01:09.179Z,6.90
2023-01-05T01:03:41.487Z,6.83
2023-01-05T01:06:08.201Z,6.80
2023-01-05T01:08:34.953Z,6.86
2023-01-05T01:11:10.426Z,6.83
2023-01-05T01:13:38.970Z,6.83
2023-01-05T01:16:14.339Z,6.76
2023-01-05T01:18:49.698Z,6.81
2023-01-05T01:21:21.858Z,6.93
2023-01-05T01:23:51.433Z,6.95
2023-01-05T01:26:20.493Z,6.87
2023-01-05T01:28:48.697Z,7.00
2023-01-05T01:31:15.868Z,6.97
2023-01-05T01:33:44.026Z,7.00
2023-01-05T01:36:10.912Z,7.02
2023-01-05T01:38:38.155Z,6.96
2023-01-05T01:41:05.452Z,6.97
2023-01-05T01:43:53.071Z,6.96
2023-01-05T01:46:28.110Z,6.97
2023-01-05T01:49:08.887Z,6.96
2023-01-05T01:51:50.560Z,7.01
2023-01-05T01:54:21.337Z,7.03
2023-01-05T01:56:55.696Z,6.93
2023-01-05T01:59:30.264Z,6.92
2023-01-05T02:02:04.300Z,6.97
2023-01-05T02:04:38.119Z,6.95
2023-01-05T02:07:11.270Z,6.87
2023-01-05T02:09:38.683Z,6.87
2023-01-05T02:12:38.074Z,6.82
2023-01-05T02:15:45.125Z,7.00
2023-01-05T02:18:50.363Z,7.08
2023-01-05T02:21:35.793Z,7.09
2023-01-05T02:24:11.138Z,7.02
2023-01-05T02:27:20.988Z,6.97
2023-01-05T02:30:08.926Z,7.00
2023-01-05T02:33:34.810Z,7.03
2023-01-05T02:36:45.907Z,6.98
2023-01-05T02:39:25.709Z,7.02
2023-01-05T02:42:27.192Z,7.01
2023-01-05T02:44:54.517Z,7.05
2023-01-05T02:47:28.006Z,7.02
2023-01-05T02:50:10.884Z,6.95
2023-01-05T02:53:09.934Z,6.97
2023-01-05T02:55:48.970Z,6.95
2023-01-05T02:58:32.114Z,6.95
2023-01-05T03:01:05.508Z,7.03
2023-01-05T03:03:43.588Z,7.06
2023-01-05T03:06:48.467Z,7.17
2023-01-05T03:09:20.173Z,7.09
2023-01-05T03:12:51.090Z,7.16
2023-01-05T03:15:34.163Z,7.24
2023-01-05T03:18:10.216Z,7.17
2023-01-05T03:20:50.861Z,7.23
2023-01-05T03:23:41.672Z,7.25
2023-01-05T03:26:31.676Z,7.29
2023-01-05T03:29:28.355Z,7.18
2023-01-05T03:32:35.949Z,7.25
2023-01-05T03:35:37.550Z,7.28
2023-01-05T03:38:42.755Z,7.18
2023-01-05T03:41:20.721Z,7.20
2023-01-05T03:43:52.899Z,7.19
2023-01-05T03:46:25.340Z,7.08
2023-01-05T03:48:52.567Z,7.09
2023-01-05T03:51:21.904Z,7.13
2023-01-05T03:53:48.704Z,7.23
2023-01-05T03:56:15.450Z,7.32
2023-01-05T03:58:42.106Z,7.27
2023-01-05T04:01:08.995Z,7.26
2023-01-05T04:03:35.955Z,7.24
2023-01-05T04:06:02.794Z,7.31
2023-01-05T04:08:32.193Z,7.25
2023-01-05T04:11:16.826Z,7.30
2023-01-05T04:13:46.886Z,7.29
2023-01-05T04:16:14.764Z,7.23
2023-01-05T04:18:41.569Z,7.25
2023-01-05T04:21:08.564Z,7.21
2023-01-05T04:23:35.984Z,7.27
2023-01-05T04:26:04.093Z,7.22
2023-01-05T04:28:30.917Z,7.25
2023-01-05T04:30:57.966Z,7.23
2023-01-05T04:33:31.653Z,7.17
2023-01-05T04:35:58.505Z,7.01
2023-01-05T04:38:28.154Z,6.90
2023-01-05T04:40:54.854Z,6.83
2023-01-05T04:43:21.633Z,6.80
2023-01-05T04:45:49.355Z,6.73
2023-01-05T04:48:17.335Z,6.72
2023-01-05T04:50:44.407Z,6.81
2023-01-05T04:53:11.543Z,6.84
2023-01-05T04:55:38.209Z,6.93
2023-01-05T04:58:11.543Z,7.01
2023-01-05T05:00:43.961Z,7.06
2023-01-05T05:03:10.799Z,7.12
2023-01-05T05:05:48.739Z,7.12
2023-01-05T05:08:15.472Z,7.09
2023-01-05T05:10:42.282Z,7.13
2023-01-05T05:13:08.959Z,7.19
2023-01-05T05:15:38.856Z,7.09
2023-01-05T05:18:09.717Z,7.00
2023-01-05T05:20:41.468Z,6.95
2023-01-05T05:23:08.247Z,6.94
2023-01-05T05:25:35.093Z,6.85
2023-01-05T05:28:02.001Z,6.75
2023-01-05T05:30:28.669Z,6.74
2023-01-05T05:46:35.968Z,6.89
2023-01-05T05:54:30.885Z,7.09
2023-01-05T07:29:16.761Z,5.69
2023-01-05T07:31:49.121Z,5.65
2023-01-05T07:34:21.129Z,5.52
2023-01-05T07:36:49.576Z,5.48
2023-01-05T07:39:17.537Z,5.38
2023-01-05T07:41:47.929Z,5.31
2023-01-05T07:46:59.266Z,5.29
2023-01-05T07:54:48.575Z,5.09
2023-01-05T07:57:15.330Z,5.17
2023-01-05T07:59:42.144Z,5.11
2023-01-05T08:02:13.727Z,5.08
2023-01-05T08:04:42.830Z,5.01
2023-01-05T08:07:13.936Z,5.03
2023-01-05T08:10:02.025Z,5.08
2023-01-05T08:12:33.314Z,4.93
2023-01-05T08:15:02.857Z,4.77
2023-01-05T08:17:35.606Z,4.64
2023-01-05T08:20:02.285Z,4.47
2023-01-05T08:22:34.134Z,4.38
2023-01-05T08:25:02.810Z,4.35
2023-01-05T08:27:34.762Z,4.14
2023-01-05T08:30:04.743Z,4.07
2023-01-05T08:32:31.513Z,3.99
2023-01-05T08:34:59.544Z,4.04
2023-01-05T08:37:35.396Z,4.05
2023-01-05T08:40:03.014Z,4.05
2023-01-05T08:42:35.391Z,3.99
2023-01-05T08:45:11.488Z,4.00
2023-01-05T08:47:38.394Z,3.93
2023-01-05T08:50:07.184Z,3.97
2023-01-05T08:52:46.461Z,3.86
2023-01-05T08:55:15.183Z,3.80
2023-01-05T08:57:42.045Z,3.73
2023-01-05T09:00:13.456Z,3.83
2023-01-05T09:02:44.880Z,3.72
2023-01-05T09:05:12.158Z,3.75
2023-01-05T09:07:42.007Z,3.83
2023-01-05T09:10:09.517Z,3.80
2023-01-05T09:12:37.456Z,3.69
2023-01-05T09:15:06.814Z,3.60
2023-01-05T09:17:38.230Z,3.64
2023-01-05T09:20:11.538Z,3.67
2023-01-05T09:22:38.256Z,3.66
2023-01-05T09:25:06.099Z,3.72
2023-01-05T09:27:32.958Z,3.77
2023-01-05T09:29:59.666Z,3.76
2023-01-05T09:32:26.414Z,3.78
2023-01-05T09:34:53.147Z,3.85
2023-01-05T09:37:20.326Z,3.87
2023-01-05T09:39:48.003Z,3.93
2023-01-05T09:42:26.184Z,4.02
2023-01-05T09:45:05.136Z,4.08
2023-01-05T09:47:46.900Z,4.11
2023-01-05T09:50:31.482Z,4.36
2023-01-05T09:53:01.503Z,4.32
2023-01-05T09:55:37.153Z,4.50
2023-01-05T09:58:30.173Z,4.61
2023-01-05T10:01:15.880Z,4.61
2023-01-05T10:04:13.100Z,4.71
2023-01-05T10:06:49.351Z,4.67
2023-01-05T10:09:29.688Z,4.69
2023-01-05T10:13:08.984Z,4.65
2023-01-05T10:15:51.279Z,4.79
2023-01-05T10:18:25.413Z,4.86
2023-01-05T10:21:26.730Z,4.92
2023-01-05T10:24:35.154Z,4.92
2023-01-05T10:27:31.427Z,5.00
2023-01-05T10:30:27.460Z,5.17
2023-01-05T10:40:44.427Z,5.07
2023-01-05T10:43:42.327Z,5.13
2023-01-05T10:46:32.584Z,5.20
2023-01-05T10:49:03.536Z,5.18
2023-01-05T10:51:42.944Z,5.22
2023-01-05T10:54:44.356Z,5.28
2023-01-05T10:57:34.550Z,5.14
2023-01-05T11:00:42.969Z,5.21
2023-01-05T11:03:18.038Z,5.24
2023-01-05T11:05:48.909Z,5.18
2023-01-05T11:08:29.197Z,5.18
2023-01-05T11:11:10.728Z,5.29
2023-01-05T11:13:53.237Z,5.28
2023-01-05T11:16:34.754Z,5.25
2023-01-05T11:19:18.380Z,5.32
2023-01-05T11:21:49.040Z,5.36
2023-01-05T11:24:38.627Z,5.42
2023-01-05T11:27:20.594Z,5.43
2023-01-05T11:30:21.360Z,5.53
2023-01-05T11:32:48.532Z,5.45
2023-01-05T11:35:30.544Z,5.54
2023-01-05T11:37:57.966Z,5.57
2023-01-05T11:40:34.366Z,5.40
2023-01-05T11:43:12.405Z,5.26
2023-01-05T11:51:43.153Z,5.00
2023-01-05T11:54:38.242Z,4.76
2023-01-05T11:57:20.448Z,4.78
2023-01-05T11:59:47.431Z,4.77
2023-01-05T12:03:10.381Z,4.78
2023-01-05T12:05:55.532Z,4.82
2023-01-05T12:08:44.032Z,4.87
2023-01-05T12:11:27.739Z,4.98
2023-01-05T12:14:21.723Z,5.07
2023-01-05T12:16:57.104Z,5.09
2023-01-05T12:19:45.735Z,5.14
2023-01-05T12:22:58.548Z,5.14
2023-01-05T12:26:01.976Z,4.97
2023-01-05T12:35:57.969Z,4.72
2023-01-05T12:38:48.974Z,4.71
2023-01-05T12:42:37.892Z,4.72
2023-01-05T12:45:45.628Z,4.80
2023-01-05T12:48:34.545Z,4.72
2023-01-05T12:51:24.721Z,4.66
2023-01-05T12:54:26.747Z,4.71
2023-01-05T12:57:49.409Z,4.75
2023-01-05T13:00:21.189Z,4.72
2023-01-05T13:03:00.518Z,4.68
2023-01-05T13:06:48.061Z,4.79
2023-01-05T13:09:30.112Z,4.77
2023-01-05T13:12:13.832Z,4.59
2023-01-05T13:15:16.634Z,4.59
2023-01-05T13:17:52.583Z,4.53
2023-01-05T13:21:01.296Z,4.34
2023-01-05T13:23:55.420Z,4.34
2023-01-05T13:26:23.067Z,4.25
2023-01-05T13:28:55.841Z,4.20
2023-01-05T13:32:07.279Z,4.12
2023-01-05T13:35:49.786Z,4.13
2023-01-05T13:38:59.903Z,4.40
2023-01-05T13:42:15.559Z,4.55
2023-01-05T13:44:44.919Z,4.82
2023-01-05T13:47:45.564Z,5.20
2023-01-05T13:50:45.646Z,5.39
2023-01-05T13:53:30.723Z,5.35
2023-01-05T13:56:12.934Z,5.25
2023-01-05T13:59:44.438Z,4.96
2023-01-05T14:02:56.995Z,4.79
2023-01-05T14:05:34.800Z,4.62
2023-01-05T14:08:14.602Z,4.47
2023-01-05T14:11:22.610Z,4.31
2023-01-05T14:14:08.251Z,4.19
2023-01-05T14:16:36.434Z,4.03
2023-01-05T14:19:57.898Z,3.97
2023-01-05T14:22:48.321Z,3.78
2023-01-05T14:25:40.040Z,3.64
2023-01-05T14:28:37.640Z,3.42
2023-01-05T14:31:21.635Z,3.33
2023-01-05T14:33:57.516Z,3.18
2023-01-05T14:37:02.672Z,3.00
2023-01-05T14:39:42.966Z,2.81
2023-01-05T14:42:32.154Z,2.71
2023-01-05T14:45:07.607Z,2.66
2023-01-05T14:47:40.821Z,2.60
2023-01-05T14:50:40.432Z,2.56
2023-01-05T14:53:09.858Z,2.54
2023-01-05T14:56:01.561Z,2.51
2023-01-05T14:58:37.659Z,2.44
2023-01-05T15:01:32.315Z,2.30
2023-01-05T15:04:18.344Z,2.21
2023-01-05T15:07:20.952Z,2.12
2023-01-05T15:10:29.454Z,1.96
2023-01-05T15:14:19.912Z,1.86
2023-01-05T15:17:45.357Z,1.74
2023-01-05T15:21:01.859Z,1.64
2023-01-05T15:23:59.691Z,1.49
2023-01-05T15:27:27.049Z,1.41
2023-01-05T15:30:27.406Z,1.45
2023-01-05T15:33:40.728Z,1.54
2023-01-05T15:36:32.170Z,1.53
2023-01-05T15:38:59.154Z,1.63
2023-01-05T15:41:29.260Z,1.77
2023-01-05T15:43:56.613Z,1.85
2023-01-05T15:46:34.415Z,1.97
2023-01-05T15:49:01.625Z,2.11
2023-01-05T15:51:33.139Z,2.26
2023-01-05T15:54:05.393Z,2.38
2023-01-05T15:56:42.416Z,2.46
2023-01-05T15:59:40.790Z,2.50
2023-01-05T16:02:37.017Z,2.56
2023-01-05T16:05:19.512Z,2.60
2023-01-05T16:08:06.183Z,2.61
2023-01-05T16:10:44.285Z,2.64
2023-01-05T16:13:35.198Z,2.68
2023-01-05T16:16:15.895Z,2.73
2023-01-05T16:18:57.491Z,2.77
2023-01-05T16:21:36.863Z,2.78
2023-01-05T16:24:33.620Z,2.76
2023-01-05T16:27:04.746Z,2.77
2023-01-05T16:29:45.817Z,2.79
2023-01-05T16:32:38.155Z,2.80
2023-01-05T16:35:23.826Z,2.69
2023-01-05T16:38:22.541Z,2.62
2023-01-05T16:40:49.594Z,2.54
2023-01-05T16:43:19.026Z,2.48
2023-01-05T16:45:45.970Z,2.45
2023-01-05T16:48:35.595Z,2.40
2023-01-05T16:51:12.085Z,2.40
2023-01-05T16:53:52.270Z,2.39
2023-01-05T16:56:58.372Z,2.35
2023-01-05T16:59:44.737Z,2.23
2023-01-05T17:02:52.556Z,2.06
2023-01-05T17:05:28.153Z,1.87
2023-01-05T17:08:20.142Z,1.68
2023-01-05T17:10:48.429Z,1.47
2023-01-05T17:13:21.293Z,1.31
2023-01-05T17:15:52.145Z,1.21
2023-01-05T17:18:27.181Z,1.05
2023-01-05T17:20:57.456Z,0.93
2023-01-05T17:23:31.290Z,0.75
2023-01-05T17:26:09.751Z,0.60
2023-01-05T17:28:37.571Z,0.62
2023-01-05T17:31:07.086Z,0.70
2023-01-05T17:33:33.725Z,0.88
2023-01-05T17:36:03.720Z,0.91
2023-01-05T17:38:30.577Z,0.88
2023-01-05T17:40:58.521Z,0.95
2023-01-05T17:43:27.723Z,0.94
2023-01-05T17:45:55.087Z,0.97
2023-01-05T17:48:21.794Z,1.00
2023-01-05T17:50:52.111Z,1.05
2023-01-05T17:53:20.997Z,1.14
2023-01-05T17:55:50.546Z,1.18
2023-01-05T17:58:17.408Z,1.23
2023-01-05T18:00:49.134Z,1.32
2023-01-05T18:03:22.734Z,1.44
2023-01-05T18:05:53.979Z,1.55
2023-01-05T18:08:21.735Z,1.61
2023-01-05T18:10:48.811Z,1.65
2023-01-05T18:13:18.149Z,1.73
2023-01-05T18:15:50.960Z,1.79
2023-01-05T18:18:18.578Z,1.84
2023-01-05T18:20:45.360Z,1.90
2023-01-05T18:23:12.427Z,1.94
2023-01-05T18:25:39.963Z,1.99
2023-01-05T18:28:09.124Z,2.05
2023-01-05T18:30:43.193Z,2.13
2023-01-05T18:35:44.057Z,2.26
2023-01-05T18:38:13.439Z,2.31
2023-01-05T18:40:43.354Z,2.38
2023-01-05T18:43:10.013Z,2.39
2023-01-05T18:45:48.851Z,2.39
2023-01-05T18:48:15.673Z,2.35
2023-01-05T18:50:44.562Z,2.35
2023-01-05T18:53:12.440Z,2.37
2023-01-05T18:55:42.653Z,2.39
2023-01-05T18:58:11.692Z,2.44
2023-01-05T19:00:42.169Z,2.49
2023-01-05T19:03:14.087Z,2.52
2023-01-05T19:05:44.749Z,2.57
2023-01-05T19:08:13.780Z,2.60
2023-01-05T19:10:41.547Z,2.63
2023-01-05T19:13:08.898Z,2.66
2023-01-05T19:15:37.929Z,2.71
2023-01-05T19:18:08.851Z,2.73
2023-01-05T19:20:35.641Z,2.76
2023-01-05T19:47:26.930Z,2.80
2023-01-05T19:49:54.149Z,2.73
2023-01-05T21:05:44.852Z,1.65
2023-01-05T21:08:11.659Z,1.61
2023-01-05T21:10:38.906Z,1.73
2023-01-05T21:13:31.548Z,1.86
2023-01-05T21:16:00.909Z,1.88
2023-01-05T21:18:28.003Z,2.01
2023-01-05T21:20:54.808Z,2.04
2023-01-05T21:23:21.769Z,2.07
2023-01-05T21:26:07.054Z,2.15
2023-01-05T21:28:37.112Z,2.26
2023-01-05T21:31:12.676Z,2.32
2023-01-05T21:33:41.142Z,2.39
2023-01-05T21:36:21.786Z,2.43
2023-01-05T21:39:03.841Z,2.44
2023-01-05T21:41:54.267Z,2.45
2023-01-05T21:44:23.089Z,2.47
2023-01-05T21:46:50.963Z,2.47
2023-01-05T21:49:20.439Z,2.47
2023-01-05T21:52:06.661Z,2.49
2023-01-05T21:54:51.742Z,2.51
2023-01-05T21:57:18.868Z,2.50
2023-01-05T21:59:45.788Z,2.53
2023-01-05T22:02:15.329Z,2.54
2023-01-05T22:04:43.739Z,2.61
2023-01-05T22:07:11.224Z,2.65
2023-01-05T22:09:39.093Z,2.66
2023-01-05T22:12:10.853Z,2.70
2023-01-05T22:14:38.755Z,2.73
2023-01-05T22:17:08.650Z,2.78
2023-01-05T22:19:36.008Z,2.80
2023-01-05T22:22:03.669Z,2.87
2023-01-05T22:24:30.362Z,2.90
2023-01-05T22:26:57.098Z,2.93
2023-01-05T22:29:24.757Z,2.99
2023-01-05T22:31:51.607Z,3.06
2023-01-05T22:34:18.642Z,3.09
2023-01-05T22:36:45.547Z,3.12
2023-01-05T22:39:12.756Z,3.16
2023-01-05T22:41:39.532Z,3.22
2023-01-05T22:44:10.020Z,3.24
2023-01-05T22:46:36.634Z,3.29
2023-01-05T22:49:06.437Z,3.33
2023-01-05T22:51:37.280Z,3.36
2023-01-05T22:54:07.443Z,3.38
2023-01-05T22:56:35.682Z,3.41
2023-01-05T22:59:03.045Z,3.39
2023-01-05T23:01:35.922Z,3.42
2023-01-05T23:04:07.111Z,3.40
2023-01-05T23:06:34.451Z,3.39
2023-01-05T23:09:04.768Z,3.40
2023-01-05T23:11:38.201Z,3.40
2023-01-05T23:14:08.838Z,3.45
2023-01-05T23:16:37.442Z,3.44
2023-01-05T23:19:08.210Z,3.46
2023-01-05T23:21:35.235Z,3.48
2023-01-05T23:24:02.296Z,3.47
2023-01-05T23:26:30.370Z,3.53
2023-01-05T23:28:57.252Z,3.55
2023-01-05T23:31:25.254Z,3.55
2023-01-05T23:33:52.318Z,3.55
2023-01-05T23:36:21.651Z,3.57
2023-01-05T23:38:51.503Z,3.57
2023-01-05T23:41:27.617Z,3.58
2023-01-05T23:43:54.273Z,3.62
2023-01-05T23:46:21.964Z,3.61
2023-01-05T23:48:53.305Z,3.60
2023-01-05T23:51:24.485Z,3.59
2023-01-05T23:53:53.492Z,3.67
2023-01-05T23:56:29.001Z,3.67
2023-01-05T23:59:05.691Z,3.70
